Terminal Aerodrome Forecast
Issued by NWS

Home | Current Version | Previous Version | Text Only | Print | Product List | Glossary On
Versions: 1 2 3 4 5 6 7 8 9 10 11 12 13 14 15 16 17 18 19 20 21 22 23 24 25 26 27 28 29 30 31 32 33 34
512
FTUS41 KOKX 180405 AAB
TAFTEB
TAF AMD
KTEB 180405Z 1804/1824 VRB04KT 2SM -RA BR OVC005
     FM180500 VRB03KT 1SM -RA BR OVC006
     FM180700 VRB02KT 2SM -RA BR OVC004
     FM181300 VRB04KT 4SM BR BKN006 OVC010
     FM181600 35007KT 5SM BR BKN010 OVC020
     FM182000 35007KT P6SM BKN020 OVC035=

USA.gov is the U.S. government's official web portal to all federal, state and local government web resources and services.